createdAt,value
2019-01-19T00:03:32.636Z,-0.11
2019-01-19T00:09:13.175Z,-0.09
2019-01-19T00:14:28.235Z,-0.14
2019-01-19T00:20:04.376Z,-0.16
2019-01-19T00:25:53.079Z,-0.17
2019-01-19T00:31:08.592Z,-0.14
2019-01-19T00:36:47.218Z,-0.10
2019-01-19T00:42:03.455Z,-0.14
2019-01-19T00:47:34.231Z,-0.18
2019-01-19T00:53:05.226Z,-0.17
2019-01-19T00:58:14.994Z,-0.19
2019-01-19T01:03:58.313Z,-0.18
2019-01-19T01:09:35.993Z,-0.18
2019-01-19T01:15:13.620Z,-0.12
2019-01-19T01:20:52.853Z,-0.09
2019-01-19T01:26:42.164Z,-0.16
2019-01-19T01:32:05.732Z,-0.14
2019-01-19T01:37:36.044Z,-0.13
2019-01-19T01:43:10.501Z,-0.14
2019-01-19T01:48:57.120Z,-0.14
2019-01-19T01:54:37.672Z,-0.23
2019-01-19T02:00:24.022Z,-0.24
2019-01-19T02:05:48.394Z,-0.23
2019-01-19T02:11:49.980Z,-0.25
2019-01-19T02:17:29.504Z,-0.30
2019-01-19T02:23:12.331Z,-0.31
2019-01-19T02:28:35.896Z,-0.33
2019-01-19T02:34:12.969Z,-0.36
2019-01-19T02:39:52.420Z,-0.38
2019-01-19T02:45:41.225Z,-0.42
2019-01-19T02:50:54.882Z,-0.49
2019-01-19T02:56:27.750Z,-0.56
2019-01-19T03:01:58.342Z,-0.58
2019-01-19T03:07:40.670Z,-0.56
2019-01-19T03:13:27.162Z,-0.64
2019-01-19T03:19:11.810Z,-0.72
2019-01-19T03:24:39.076Z,-0.81
2019-01-19T03:30:37.569Z,-0.84
2019-01-19T03:36:29.289Z,-0.81
2019-01-19T03:41:58.993Z,-0.86
2019-01-19T03:47:36.691Z,-0.95
2019-01-19T03:53:31.128Z,-1.16
2019-01-19T03:58:59.782Z,-1.23
2019-01-19T04:04:52.401Z,-1.26
2019-01-19T04:10:42.121Z,-1.33
2019-01-19T04:16:23.559Z,-1.44
2019-01-19T04:22:02.487Z,-1.55
2019-01-19T04:27:03.993Z,-1.66
2019-01-19T04:32:05.645Z,-1.66
2019-01-19T04:37:07.152Z,-1.74
2019-01-19T04:42:08.896Z,-1.84
2019-01-19T04:47:10.428Z,-1.93
2019-01-19T04:52:11.945Z,-1.99
2019-01-19T04:57:13.463Z,-2.03
2019-01-19T05:02:15.480Z,-2.10
2019-01-19T05:07:16.995Z,-2.18
2019-01-19T05:12:18.550Z,-2.23
2019-01-19T05:17:20.107Z,-2.26
2019-01-19T05:22:21.649Z,-2.28
2019-01-19T05:27:23.532Z,-2.32
2019-01-19T05:32:25.068Z,-2.35
2019-01-19T05:37:26.628Z,-2.37
2019-01-19T05:42:28.164Z,-2.38
2019-01-19T05:47:29.701Z,-2.36
2019-01-19T05:52:31.411Z,-2.37
2019-01-19T05:57:33.151Z,-2.40
2019-01-19T06:02:34.740Z,-2.38
2019-01-19T06:07:38.357Z,-2.38
2019-01-19T06:12:39.977Z,-2.38
2019-01-19T06:17:41.956Z,-2.38
2019-01-19T06:22:43.499Z,-2.39
2019-01-19T06:27:45.071Z,-2.37
2019-01-19T06:32:46.646Z,-2.37
2019-01-19T06:37:48.261Z,-2.38
2019-01-19T06:42:49.766Z,-2.37
2019-01-19T06:47:51.307Z,-2.36
2019-01-19T06:52:52.960Z,-2.37
2019-01-19T06:57:54.525Z,-2.36
2019-01-19T07:02:56.155Z,-2.38
2019-01-19T07:07:57.754Z,-2.37
2019-01-19T07:12:59.345Z,-2.39
2019-01-19T07:18:00.962Z,-2.39
2019-01-19T07:23:02.734Z,-2.40
2019-01-19T07:28:04.621Z,-2.43
2019-01-19T07:33:06.138Z,-2.45
2019-01-19T07:38:07.732Z,-2.43
2019-01-19T07:43:11.612Z,-2.44
2019-01-19T07:48:13.592Z,-2.43
2019-01-19T07:53:15.853Z,-2.43
2019-01-19T07:58:17.411Z,-2.43
2019-01-19T08:03:18.958Z,-2.40
2019-01-19T08:08:20.483Z,-2.36
2019-01-19T08:13:22.034Z,-2.34
2019-01-19T08:18:23.728Z,-2.28
2019-01-19T08:23:26.217Z,-2.25
2019-01-19T08:28:28.001Z,-2.19
2019-01-19T08:33:30.035Z,-2.15
2019-01-19T08:38:31.554Z,-2.11
2019-01-19T08:43:33.456Z,-2.07
2019-01-19T08:48:35.231Z,-2.02
2019-01-19T08:53:36.768Z,-1.96
2019-01-19T08:58:39.023Z,-1.92
2019-01-19T09:03:41.021Z,-1.85
2019-01-19T09:08:42.667Z,-1.77
2019-01-19T09:13:44.247Z,-1.70
2019-01-19T09:18:46.239Z,-1.61
2019-01-19T09:23:47.834Z,-1.50
2019-01-19T09:28:49.703Z,-1.32
2019-01-19T09:33:51.286Z,-1.10
2019-01-19T09:38:52.827Z,-0.93
2019-01-19T09:43:54.786Z,-0.77
2019-01-19T09:48:56.396Z,-0.65
2019-01-19T09:53:58.026Z,-0.57
2019-01-19T09:58:59.966Z,-0.46
2019-01-19T10:04:01.993Z,-0.38
2019-01-19T10:09:06.055Z,-0.30
2019-01-19T10:14:07.569Z,-0.16
2019-01-19T10:19:09.222Z,-0.06
2019-01-19T10:24:10.849Z,0.07
2019-01-19T10:29:12.418Z,0.21
2019-01-19T10:34:14.006Z,0.32
2019-01-19T10:39:15.564Z,0.42
2019-01-19T10:44:17.886Z,0.55
2019-01-19T10:49:19.438Z,0.69
2019-01-19T10:54:20.998Z,0.81
2019-01-19T10:59:22.636Z,0.94
2019-01-19T11:04:24.792Z,1.02
2019-01-19T11:09:27.128Z,1.04
2019-01-19T11:14:28.936Z,1.13
2019-01-19T11:19:30.586Z,1.25
2019-01-19T11:24:32.226Z,1.31
2019-01-19T11:29:33.898Z,1.39
2019-01-19T11:34:35.487Z,1.49
2019-01-19T11:39:37.276Z,1.57
2019-01-19T11:44:38.993Z,1.69
2019-01-19T11:49:41.000Z,1.72
2019-01-19T11:54:42.589Z,1.84
2019-01-19T11:59:44.289Z,1.89
2019-01-19T12:04:45.976Z,1.97
2019-01-19T12:09:47.992Z,2.02
2019-01-19T12:14:50.082Z,2.21
2019-01-19T12:19:51.677Z,2.32
2019-01-19T12:24:53.982Z,2.40
2019-01-19T12:29:55.612Z,2.43
2019-01-19T12:34:57.375Z,2.49
2019-01-19T12:39:59.212Z,2.61
2019-01-19T12:45:00.854Z,2.74
2019-01-19T12:50:03.213Z,2.81
2019-01-19T12:55:05.869Z,2.82
2019-01-19T13:00:10.683Z,2.85
2019-01-19T13:05:21.474Z,2.85
2019-01-19T13:10:30.421Z,2.88
2019-01-19T13:16:04.358Z,2.81
2019-01-19T13:21:45.358Z,2.88
2019-01-19T13:27:27.789Z,2.98
2019-01-19T13:33:01.494Z,2.99
2019-01-19T13:38:43.451Z,2.98
2019-01-19T13:44:30.501Z,3.00
2019-01-19T13:50:01.238Z,3.02
2019-01-19T13:55:48.326Z,3.03
2019-01-19T14:01:21.030Z,3.10
2019-01-19T14:07:25.866Z,3.11
2019-01-19T14:13:15.789Z,3.07
2019-01-19T14:18:54.363Z,3.16
2019-01-19T14:24:26.454Z,3.25
2019-01-19T14:30:11.892Z,3.27
2019-01-19T14:35:57.072Z,3.32
2019-01-19T14:41:45.652Z,3.35
2019-01-19T14:47:11.575Z,3.41
2019-01-19T14:52:28.524Z,3.41
2019-01-19T14:58:31.064Z,3.44
2019-01-19T15:04:35.883Z,3.44
2019-01-19T15:10:27.729Z,3.26
2019-01-19T15:16:09.902Z,3.05
2019-01-19T15:21:39.726Z,3.00
2019-01-19T15:27:26.113Z,3.01
2019-01-19T15:33:15.178Z,3.05
2019-01-19T15:38:55.733Z,3.03
2019-01-19T15:44:54.397Z,2.94
2019-01-19T15:50:45.645Z,2.79
2019-01-19T15:56:42.464Z,2.56
2019-01-19T16:02:27.559Z,2.34
2019-01-19T16:08:23.831Z,2.10
2019-01-19T16:14:12.297Z,1.89
2019-01-19T16:20:11.035Z,1.67
2019-01-19T16:25:39.399Z,1.45
2019-01-19T16:31:31.514Z,1.49
2019-01-19T16:37:04.521Z,1.17
2019-01-19T16:42:26.909Z,1.03
2019-01-19T16:48:12.223Z,1.00
2019-01-19T16:53:22.435Z,0.93
2019-01-19T16:59:05.715Z,0.85
2019-01-19T17:04:48.255Z,0.76
2019-01-19T17:10:12.307Z,0.67
2019-01-19T17:16:09.618Z,0.59
2019-01-19T17:22:01.963Z,0.52
2019-01-19T17:27:35.086Z,0.43
2019-01-19T17:33:13.386Z,0.39
2019-01-19T17:38:28.557Z,0.33
2019-01-19T17:43:56.795Z,0.26
2019-01-19T17:49:17.551Z,0.18
2019-01-19T17:54:52.714Z,0.07
2019-01-19T18:00:23.925Z,0.01
2019-01-19T18:06:12.739Z,-0.11
2019-01-19T18:11:55.011Z,-0.16
2019-01-19T18:17:23.274Z,-0.20
2019-01-19T18:23:12.363Z,-0.29
2019-01-19T18:28:43.185Z,-0.35
2019-01-19T18:34:01.687Z,-0.42
2019-01-19T18:39:33.102Z,-0.49
2019-01-19T18:44:43.532Z,-0.53
2019-01-19T18:50:48.123Z,-0.56
2019-01-19T18:56:28.725Z,-0.61
2019-01-19T19:02:18.318Z,-0.66
2019-01-19T19:08:01.134Z,-0.72
2019-01-19T19:13:30.608Z,-0.78
2019-01-19T19:19:08.183Z,-0.81
2019-01-19T19:24:33.040Z,-0.86
2019-01-19T19:30:13.476Z,-0.90
2019-01-19T19:35:50.584Z,-0.93
2019-01-19T19:41:42.487Z,-0.97
2019-01-19T19:47:07.181Z,-1.03
2019-01-19T19:52:11.403Z,-1.06
2019-01-19T19:57:13.287Z,-1.13
2019-01-19T20:02:14.945Z,-1.16
2019-01-19T20:07:16.588Z,-1.18
2019-01-19T20:12:18.318Z,-1.19
2019-01-19T20:17:19.998Z,-1.21
2019-01-19T20:22:21.560Z,-1.23
2019-01-19T20:27:23.312Z,-1.24
2019-01-19T20:32:24.896Z,-1.28
2019-01-19T20:37:26.570Z,-1.34
2019-01-19T20:42:29.261Z,-1.38
2019-01-19T20:47:31.024Z,-1.41
2019-01-19T20:52:32.745Z,-1.45
2019-01-19T20:57:34.331Z,-1.48
2019-01-19T21:02:36.350Z,-1.50
2019-01-19T21:07:38.113Z,-1.56
2019-01-19T21:12:39.819Z,-1.59
2019-01-19T21:17:41.507Z,-1.60
2019-01-19T21:22:43.282Z,-1.64
2019-01-19T21:27:46.897Z,-1.69
2019-01-19T21:32:48.553Z,-1.70
2019-01-19T21:37:50.140Z,-1.73
2019-01-19T21:42:52.186Z,-1.78
2019-01-19T21:47:54.200Z,-1.81
2019-01-19T21:52:55.775Z,-1.83
2019-01-19T21:57:58.269Z,-1.86
2019-01-19T22:02:59.808Z,-1.87
2019-01-19T22:08:01.844Z,-1.92
2019-01-19T22:13:03.720Z,-1.96
2019-01-19T22:18:05.325Z,-1.97
2019-01-19T22:23:06.961Z,-2.01
2019-01-19T22:28:11.850Z,-2.04
2019-01-19T22:33:13.483Z,-2.06
2019-01-19T22:38:15.183Z,-2.09
2019-01-19T22:43:22.916Z,-2.13
2019-01-19T22:48:24.596Z,-2.13
2019-01-19T22:53:27.554Z,-2.17
2019-01-19T22:58:29.340Z,-2.18
2019-01-19T23:03:33.540Z,-2.21
2019-01-19T23:08:35.677Z,-2.26
2019-01-19T23:13:37.167Z,-2.27
2019-01-19T23:18:38.722Z,-2.28
2019-01-19T23:23:40.565Z,-2.29
2019-01-19T23:28:42.215Z,-2.30
2019-01-19T23:33:44.043Z,-2.33
2019-01-19T23:38:45.657Z,-2.37
2019-01-19T23:43:47.188Z,-2.37
2019-01-19T23:48:48.781Z,-2.43
2019-01-19T23:53:50.334Z,-2.46
2019-01-19T23:58:51.871Z,-2.50
